Time;durP1;ratioP1;P1;durP2;ratioP2;P2;SDS_P1;SDS_P2;PMS_P1;PMS_P2;Temp;Humidity;BMP_temperature;BMP_pressure;BME280_temperature;BME280_humidity;BME280_pressure;Samples;Min_cycle;Max_cycle;Signal;HPM_P1;HPM_P2
2022/12/13 00:00:27;;;;;;;23.47;13.60;;;;;;;;;;1683426;83;21190;-54
2022/12/13 00:02:53;;;;;;;22.50;13.90;;;;;;;;;;1683198;83;21087;-52
2022/12/13 00:05:20;;;;;;;19.27;13.13;;;;;;;;;;1677655;83;21075;-54
2022/12/13 00:07:47;;;;;;;19.40;13.77;;;;;;;;;;1686269;83;21206;-54
2022/12/13 00:10:13;;;;;;;21.90;14.50;;;;;;;;;;1685938;83;21544;-53
2022/12/13 00:12:39;;;;;;;22.97;13.90;;;;;;;;;;1679003;83;22580;-53
2022/12/13 00:15:06;;;;;;;20.93;14.10;;;;;;;;;;1672750;83;21232;-53
2022/12/13 00:17:33;;;;;;;21.57;15.53;;;;;;;;;;1684438;83;21907;-52
2022/12/13 00:19:59;;;;;;;21.63;13.07;;;;;;;;;;1681497;83;21005;-53
2022/12/13 00:22:26;;;;;;;21.40;14.57;;;;;;;;;;1681801;83;21004;-54
2022/12/13 00:24:55;;;;;;;23.37;14.57;;;;;;;;;;1679775;83;21939;-54
2022/12/13 00:27:21;;;;;;;17.00;13.67;;;;;;;;;;1662288;84;21160;-54
2022/12/13 00:29:48;;;;;;;20.20;14.30;;;;;;;;;;1655400;84;21788;-53
2022/12/13 00:32:14;;;;;;;23.43;14.40;;;;;;;;;;1637580;84;21079;-52
2022/12/13 00:34:40;;;;;;;20.13;12.90;;;;;;;;;;1650237;84;21099;-52
2022/12/13 00:37:06;;;;;;;20.50;14.23;;;;;;;;;;1657664;84;21075;-52
2022/12/13 00:39:32;;;;;;;21.97;12.90;;;;;;;;;;1646310;84;21028;-53
2022/12/13 00:41:58;;;;;;;20.97;13.97;;;;;;;;;;1650553;84;21870;-53
2022/12/13 00:44:24;;;;;;;19.87;14.00;;;;;;;;;;1641914;84;21056;-52
2022/12/13 00:46:52;;;;;;;22.23;13.43;;;;;;;;;;1628406;84;21150;-52
2022/12/13 00:49:18;;;;;;;22.00;14.33;;;;;;;;;;1644213;85;21064;-52
2022/12/13 00:51:47;;;;;;;19.80;12.90;;;;;;;;;;1648056;84;21698;-52
2022/12/13 00:54:12;;;;;;;22.93;14.33;;;;;;;;;;1668748;83;22905;-52
2022/12/13 00:56:39;;;;;;;20.50;13.43;;;;;;;;;;1666840;84;21139;-53
2022/12/13 00:59:05;;;;;;;18.13;12.37;;;;;;;;;;1634509;85;21064;-53
2022/12/13 01:01:33;;;;;;;19.10;13.23;;;;;;;;;;1656396;84;21092;-52
2022/12/13 01:06:39;;;;;;;19.33;12.80;;;;;;;;;;1852699;75;27843;-53
2022/12/13 01:09:06;;;;;;;19.30;13.20;;;;;;;;;;1778763;78;21040;-54
2022/12/13 01:11:33;;;;;;;21.03;13.83;;;;;;;;;;1760779;79;21854;-54
2022/12/13 01:13:59;;;;;;;24.20;14.30;;;;;;;;;;1757949;79;21628;-53
2022/12/13 01:16:25;;;;;;;23.03;13.73;;;;;;;;;;1760372;79;21116;-54
2022/12/13 01:18:54;;;;;;;21.37;13.47;;;;;;;;;;1758717;79;21104;-54
2022/12/13 01:21:21;;;;;;;22.13;14.60;;;;;;;;;;1781936;78;21059;-53
2022/12/13 01:23:47;;;;;;;21.97;13.33;;;;;;;;;;1778277;78;23099;-54
2022/12/13 01:26:15;;;;;;;22.17;14.53;;;;;;;;;;1771634;80;21072;-54
2022/12/13 01:28:41;;;;;;;23.23;15.03;;;;;;;;;;1766372;78;21044;-54
2022/12/13 01:31:11;;;;;;;21.57;14.20;;;;;;;;;;1765250;80;21923;-54
2022/12/13 01:33:37;;;;;;;21.17;13.33;;;;;;;;;;1769181;80;21517;-53
2022/12/13 01:36:04;;;;;;;20.80;14.27;;;;;;;;;;1766923;80;21913;-54
2022/12/13 01:38:31;;;;;;;20.40;13.57;;;;;;;;;;1773469;80;21080;-54
2022/12/13 01:40:57;;;;;;;20.10;14.80;;;;;;;;;;1771847;78;21048;-53
2022/12/13 01:43:42;;;;;;;21.83;14.23;;;;;;;;;;1756709;80;21147;-53
2022/12/13 01:46:11;;;;;;;;;;;;;;;;;;1710214;80;21060;-53
2022/12/13 01:48:43;;;;;;;19.97;13.23;;;;;;;;;;1771125;78;21904;-53
2022/12/13 01:51:11;;;;;;;24.00;16.13;;;;;;;;;;1739273;80;21619;-54
2022/12/13 01:53:38;;;;;;;24.90;16.10;;;;;;;;;;1766231;80;21086;-53
2022/12/13 01:56:09;;;;;;;22.17;14.53;;;;;;;;;;1770433;80;21041;-53
2022/12/13 01:58:36;;;;;;;22.87;13.77;;;;;;;;;;1709681;83;21093;-55
2022/12/13 02:01:03;;;;;;;23.67;15.17;;;;;;;;;;1703946;83;21829;-54
2022/12/13 02:03:29;;;;;;;21.17;14.50;;;;;;;;;;1711545;83;21095;-53
2022/12/13 02:06:02;;;;;;;27.43;16.37;;;;;;;;;;1714637;83;21553;-55
2022/12/13 02:08:29;;;;;;;20.43;13.77;;;;;;;;;;1728242;81;21464;-54
2022/12/13 02:10:57;;;;;;;22.83;15.20;;;;;;;;;;1737706;80;21298;-54
2022/12/13 02:13:23;;;;;;;21.03;14.60;;;;;;;;;;1710413;82;21871;-54
2022/12/13 02:16:24;;;;;;;22.33;15.57;;;;;;;;;;1714566;81;21064;-54
2022/12/13 02:18:53;;;;;;;23.47;15.33;;;;;;;;;;1708762;82;21110;-53
2022/12/13 02:21:29;;;;;;;22.90;14.60;;;;;;;;;;1706948;83;21054;-54
2022/12/13 02:24:21;;;;;;;25.43;15.53;;;;;;;;;;1704492;82;21080;-55
2022/12/13 02:27:15;;;;;;;24.43;15.17;;;;;;;;;;1701945;82;22363;-55
2022/12/13 02:29:50;;;;;;;22.00;15.00;;;;;;;;;;1710668;82;21115;-54
2022/12/13 02:32:32;;;;;;;19.67;13.30;;;;;;;;;;1702267;82;21404;-53
2022/12/13 02:35:13;;;;;;;22.27;15.23;;;;;;;;;;1709905;82;21457;-54
2022/12/13 02:37:49;;;;;;;20.23;13.47;;;;;;;;;;1711667;82;21036;-54
2022/12/13 02:40:22;;;;;;;23.00;15.67;;;;;;;;;;1711268;82;21918;-54
2022/12/13 02:42:58;;;;;;;22.43;16.00;;;;;;;;;;1716170;82;20973;-53
2022/12/13 02:45:30;;;;;;;21.73;15.80;;;;;;;;;;1697577;82;21064;-55
2022/12/13 02:47:57;;;;;;;25.00;15.20;;;;;;;;;;1708760;82;21522;-54
2022/12/13 02:50:23;;;;;;;21.63;14.77;;;;;;;;;;1711254;83;21092;-54
2022/12/13 02:52:49;;;;;;;23.27;14.90;;;;;;;;;;1712929;83;21946;-54
2022/12/13 02:55:15;;;;;;;22.63;15.20;;;;;;;;;;1709276;83;21115;-53
2022/12/13 02:57:43;;;;;;;25.30;15.70;;;;;;;;;;1707136;82;21622;-54
2022/12/13 03:00:26;;;;;;;26.17;16.47;;;;;;;;;;1709551;82;21093;-55
2022/12/13 03:03:07;;;;;;;23.73;15.97;;;;;;;;;;1704631;82;21081;-53
2022/12/13 03:07:28;;;;;;;26.30;16.13;;;;;;;;;;1794662;77;27375;-52
2022/12/13 03:10:00;;;;;;;24.27;15.80;;;;;;;;;;1776675;80;21150;-53
2022/12/13 03:15:26;;;;;;;29.17;17.53;;;;;;;;;;1779729;79;21158;-52
2022/12/13 03:18:04;;;;;;;27.30;18.13;;;;;;;;;;1782118;80;21026;-52
2022/12/13 03:20:31;;;;;;;29.73;18.10;;;;;;;;;;1782239;80;21072;-54
2022/12/13 03:22:57;;;;;;;25.97;17.70;;;;;;;;;;1780578;80;21487;-54
2022/12/13 03:25:26;;;;;;;30.50;19.03;;;;;;;;;;1787163;79;21846;-54
2022/12/13 03:27:52;;;;;;;25.97;17.63;;;;;;;;;;1787919;78;21335;-52
2022/12/13 03:30:19;;;;;;;27.23;17.37;;;;;;;;;;1786768;79;22345;-53
2022/12/13 03:32:45;;;;;;;29.47;18.93;;;;;;;;;;1787067;79;21037;-53
2022/12/13 03:35:11;;;;;;;25.40;18.03;;;;;;;;;;1791276;79;21025;-54
2022/12/13 03:37:37;;;;;;;28.43;17.77;;;;;;;;;;1779940;78;21849;-53
2022/12/13 03:40:05;;;;;;;27.43;18.00;;;;;;;;;;1787928;79;21036;-53
2022/12/13 03:42:31;;;;;;;25.70;16.87;;;;;;;;;;1783879;79;21052;-53
2022/12/13 03:44:58;;;;;;;29.27;18.70;;;;;;;;;;1776210;79;21317;-54
2022/12/13 03:47:24;;;;;;;27.93;17.70;;;;;;;;;;1779951;79;21033;-54
2022/12/13 03:49:50;;;;;;;21.53;14.77;;;;;;;;;;1779503;79;21808;-54
2022/12/13 03:52:17;;;;;;;26.23;15.97;;;;;;;;;;1780806;79;21155;-53
2022/12/13 03:54:43;;;;;;;22.60;16.27;;;;;;;;;;1783774;79;20994;-53
2022/12/13 03:57:09;;;;;;;25.73;16.70;;;;;;;;;;1783098;79;21091;-53
2022/12/13 03:59:35;;;;;;;23.53;15.87;;;;;;;;;;1781165;79;21113;-53
2022/12/13 04:02:02;;;;;;;26.37;15.97;;;;;;;;;;1780343;79;23306;-54
2022/12/13 04:04:30;;;;;;;24.40;16.43;;;;;;;;;;1782459;79;21080;-53
2022/12/13 04:06:58;;;;;;;24.70;16.20;;;;;;;;;;1767023;80;21072;-54
2022/12/13 04:09:24;;;;;;;24.03;15.57;;;;;;;;;;1749105;80;21053;-53
2022/12/13 04:14:37;;;;;;;23.90;15.53;;;;;;;;;;1753277;80;21884;-54
2022/12/13 04:17:03;;;;;;;22.57;15.40;;;;;;;;;;1751980;80;21073;-54
2022/12/13 04:19:29;;;;;;;27.83;18.07;;;;;;;;;;1754311;80;21017;-53
2022/12/13 04:21:55;;;;;;;27.77;17.40;;;;;;;;;;1753625;80;21519;-54
2022/12/13 04:24:22;;;;;;;26.73;15.97;;;;;;;;;;1753511;80;21100;-54
2022/12/13 04:26:48;;;;;;;32.87;18.27;;;;;;;;;;1754901;80;21929;-54
2022/12/13 04:29:14;;;;;;;28.17;18.23;;;;;;;;;;1751737;80;21163;-53
2022/12/13 04:31:40;;;;;;;27.97;17.53;;;;;;;;;;1753428;80;21530;-53
2022/12/13 04:34:07;;;;;;;27.13;17.00;;;;;;;;;;1752374;80;21040;-54
2022/12/13 04:36:33;;;;;;;29.47;18.10;;;;;;;;;;1752570;80;21107;-54
2022/12/13 04:39:01;;;;;;;27.73;17.33;;;;;;;;;;1754911;80;22445;-54
2022/12/13 04:41:27;;;;;;;26.67;16.07;;;;;;;;;;1757584;80;21009;-54
2022/12/13 04:43:53;;;;;;;29.47;17.87;;;;;;;;;;1759025;80;21092;-54
2022/12/13 04:46:20;;;;;;;26.87;16.07;;;;;;;;;;1751640;80;21073;-55
2022/12/13 04:48:46;;;;;;;28.73;16.70;;;;;;;;;;1755956;80;21480;-54
2022/12/13 04:51:13;;;;;;;21.60;14.83;;;;;;;;;;1756870;80;21754;-53
2022/12/13 04:53:39;;;;;;;24.03;15.27;;;;;;;;;;1752905;80;21064;-53
2022/12/13 04:56:06;;;;;;;24.80;16.00;;;;;;;;;;1753876;80;21085;-54
2022/12/13 04:58:33;;;;;;;23.17;16.37;;;;;;;;;;1752580;80;21692;-53
2022/12/13 05:00:59;;;;;;;25.43;16.13;;;;;;;;;;1757587;80;21151;-54
2022/12/13 05:03:26;;;;;;;27.20;17.27;;;;;;;;;;1750480;80;22633;-54
2022/12/13 05:05:53;;;;;;;23.80;15.10;;;;;;;;;;1756026;80;21061;-55
2022/12/13 05:08:19;;;;;;;23.63;16.50;;;;;;;;;;1779467;78;20983;-53
2022/12/13 05:10:46;;;;;;;24.70;16.67;;;;;;;;;;1775258;78;20973;-54
2022/12/13 05:13:12;;;;;;;24.87;15.63;;;;;;;;;;1776764;79;21772;-54
2022/12/13 05:15:39;;;;;;;26.67;16.80;;;;;;;;;;1783205;79;21899;-53
2022/12/13 05:18:06;;;;;;;23.57;16.80;;;;;;;;;;1774554;79;20959;-53
2022/12/13 05:20:34;;;;;;;23.77;16.27;;;;;;;;;;1783145;79;21002;-53
2022/12/13 05:23:00;;;;;;;23.23;15.20;;;;;;;;;;1738454;81;21614;-53
2022/12/13 05:25:27;;;;;;;25.30;15.87;;;;;;;;;;1738607;80;21026;-54
2022/12/13 05:27:53;;;;;;;22.00;14.73;;;;;;;;;;1737115;80;21765;-54
2022/12/13 05:30:19;;;;;;;27.73;17.50;;;;;;;;;;1738136;82;21441;-53
2022/12/13 05:32:45;;;;;;;23.60;16.70;;;;;;;;;;1742058;80;20974;-54
2022/12/13 05:35:12;;;;;;;25.50;18.00;;;;;;;;;;1726001;82;21006;-53
2022/12/13 05:37:39;;;;;;;26.20;18.40;;;;;;;;;;1730830;82;21587;-53
2022/12/13 05:40:06;;;;;;;29.60;18.40;;;;;;;;;;1728449;82;22812;-54
2022/12/13 05:42:32;;;;;;;25.47;17.87;;;;;;;;;;1717998;82;21413;-53
2022/12/13 05:44:58;;;;;;;24.90;18.20;;;;;;;;;;1726272;82;20998;-54
2022/12/13 05:47:24;;;;;;;28.33;18.57;;;;;;;;;;1726533;82;21057;-55
2022/12/13 05:49:51;;;;;;;29.00;19.27;;;;;;;;;;1729419;82;21653;-54
2022/12/13 05:52:18;;;;;;;27.57;18.90;;;;;;;;;;1707271;82;21825;-53
2022/12/13 05:54:44;;;;;;;26.20;18.33;;;;;;;;;;1737402;82;21113;-52
2022/12/13 05:57:12;;;;;;;25.57;18.47;;;;;;;;;;1695148;82;21103;-53
2022/12/13 05:59:38;;;;;;;28.03;16.80;;;;;;;;;;1702225;82;21071;-52
2022/12/13 06:02:04;;;;;;;27.70;19.00;;;;;;;;;;1737760;80;21367;-53
2022/12/13 06:04:31;;;;;;;27.67;19.57;;;;;;;;;;1735956;80;21705;-53
2022/12/13 06:06:58;;;;;;;28.17;19.97;;;;;;;;;;1731993;80;21116;-53
2022/12/13 06:09:24;;;;;;;32.33;22.47;;;;;;;;;;1702108;82;21105;-54
2022/12/13 06:11:51;;;;;;;33.63;23.73;;;;;;;;;;1729989;81;21106;-52
2022/12/13 06:14:17;;;;;;;29.67;23.23;;;;;;;;;;1738438;80;21045;-52
2022/12/13 06:16:43;;;;;;;28.60;19.67;;;;;;;;;;1742030;80;22232;-53
2022/12/13 06:19:10;;;;;;;28.17;19.53;;;;;;;;;;1702000;82;21080;-53
2022/12/13 06:21:36;;;;;;;26.27;18.60;;;;;;;;;;1697164;82;21094;-54
2022/12/13 06:24:04;;;;;;;22.90;17.00;;;;;;;;;;1695378;82;21359;-53
2022/12/13 06:26:30;;;;;;;24.83;17.50;;;;;;;;;;1732022;80;21219;-52
2022/12/13 06:28:56;;;;;;;26.00;17.73;;;;;;;;;;1689211;82;21771;-53
2022/12/13 06:31:22;;;;;;;24.80;17.43;;;;;;;;;;1699064;82;21148;-53
2022/12/13 06:33:49;;;;;;;25.27;18.70;;;;;;;;;;1715456;81;21677;-53
2022/12/13 06:36:16;;;;;;;31.50;20.10;;;;;;;;;;1731988;82;21029;-53
2022/12/13 06:38:42;;;;;;;24.47;18.23;;;;;;;;;;1729805;81;21065;-53
2022/12/13 06:41:10;;;;;;;28.87;20.63;;;;;;;;;;1710575;82;21827;-53
2022/12/13 06:43:36;;;;;;;25.53;17.70;;;;;;;;;;1705372;82;22266;-52
2022/12/13 06:46:04;;;;;;;24.50;18.47;;;;;;;;;;1714123;82;21093;-53
2022/12/13 06:48:30;;;;;;;25.83;18.50;;;;;;;;;;1711057;82;21046;-53
2022/12/13 06:51:00;;;;;;;26.93;18.47;;;;;;;;;;1713971;82;21479;-53
2022/12/13 06:53:27;;;;;;;24.43;17.07;;;;;;;;;;1708724;82;22975;-53
2022/12/13 06:55:53;;;;;;;28.43;18.00;;;;;;;;;;1710058;82;21486;-52
2022/12/13 06:58:20;;;;;;;24.23;17.03;;;;;;;;;;1713527;82;21061;-53
2022/12/13 07:00:46;;;;;;;26.53;18.10;;;;;;;;;;1706015;82;22483;-53
2022/12/13 07:03:12;;;;;;;27.20;18.77;;;;;;;;;;1730163;81;21105;-53
2022/12/13 07:05:38;;;;;;;26.67;18.60;;;;;;;;;;1700199;83;21817;-53
2022/12/13 07:08:05;;;;;;;27.97;17.67;;;;;;;;;;1704380;83;21034;-52
2022/12/13 07:10:31;;;;;;;28.87;19.70;;;;;;;;;;1707516;83;21626;-53
2022/12/13 07:12:58;;;;;;;27.50;18.53;;;;;;;;;;1701206;82;21053;-52
2022/12/13 07:17:51;;;;;;;26.17;17.33;;;;;;;;;;1796442;77;27389;-54
2022/12/13 07:20:19;;;;;;;29.20;18.63;;;;;;;;;;1770298;79;22541;-52
2022/12/13 07:22:48;;;;;;;26.43;17.73;;;;;;;;;;1765071;80;21864;-53
2022/12/13 07:25:14;;;;;;;28.10;19.03;;;;;;;;;;1764658;80;21170;-53
2022/12/13 07:27:40;;;;;;;26.13;17.50;;;;;;;;;;1770787;80;21094;-54
2022/12/13 07:30:07;;;;;;;22.70;16.30;;;;;;;;;;1762916;80;21342;-53
2022/12/13 07:32:33;;;;;;;25.27;17.57;;;;;;;;;;1762419;80;21065;-52
2022/12/13 07:34:59;;;;;;;26.77;16.70;;;;;;;;;;1765911;79;22471;-52
2022/12/13 07:37:26;;;;;;;29.03;17.77;;;;;;;;;;1764707;80;21010;-53
2022/12/13 07:39:52;;;;;;;24.57;15.50;;;;;;;;;;1765914;80;21001;-53
2022/12/13 07:42:18;;;;;;;21.83;14.93;;;;;;;;;;1765289;79;20978;-53
2022/12/13 07:44:44;;;;;;;26.37;17.27;;;;;;;;;;1773868;80;20986;-53
2022/12/13 07:47:11;;;;;;;24.83;15.70;;;;;;;;;;1773946;80;21842;-54
2022/12/13 07:49:39;;;;;;;26.13;17.70;;;;;;;;;;1764584;79;21021;-52
2022/12/13 07:52:10;;;;;;;25.70;16.57;;;;;;;;;;1766680;80;21008;-53
2022/12/13 07:54:36;;;;;;;23.13;15.83;;;;;;;;;;1759976;80;21346;-52
2022/12/13 07:57:02;;;;;;;20.77;15.73;;;;;;;;;;1761955;80;21507;-52
2022/12/13 07:59:29;;;;;;;24.93;17.00;;;;;;;;;;1764373;80;21777;-53
2022/12/13 08:01:55;;;;;;;24.97;17.13;;;;;;;;;;1757648;80;21294;-52
2022/12/13 08:04:21;;;;;;;26.27;17.10;;;;;;;;;;1766786;79;21020;-52
2022/12/13 08:06:47;;;;;;;28.07;17.13;;;;;;;;;;1761100;80;21068;-54
2022/12/13 08:09:13;;;;;;;24.20;16.87;;;;;;;;;;1756186;80;21048;-53
2022/12/13 08:11:39;;;;;;;25.17;17.47;;;;;;;;;;1760924;79;21788;-53
2022/12/13 08:14:06;;;;;;;25.07;16.97;;;;;;;;;;1764036;80;21056;-53
2022/12/13 08:16:33;;;;;;;54.43;20.87;;;;;;;;;;1756676;79;21120;-52
2022/12/13 08:18:59;;;;;;;49.87;21.10;;;;;;;;;;1750908;80;21527;-53
2022/12/13 08:21:25;;;;;;;34.77;20.00;;;;;;;;;;1698155;82;21066;-53
2022/12/13 08:23:51;;;;;;;46.13;20.63;;;;;;;;;;1695784;82;21782;-54
2022/12/13 08:26:17;;;;;;;40.83;19.00;;;;;;;;;;1720242;81;21496;-53
2022/12/13 08:28:43;;;;;;;43.40;18.00;;;;;;;;;;1716875;81;21470;-53
2022/12/13 08:31:10;;;;;;;29.77;18.03;;;;;;;;;;1721739;81;21181;-53
2022/12/13 08:33:38;;;;;;;38.87;19.03;;;;;;;;;;1719488;81;21065;-53
2022/12/13 08:36:09;;;;;;;27.27;16.50;;;;;;;;;;1717380;81;21805;-53
2022/12/13 08:38:36;;;;;;;17.97;13.87;;;;;;;;;;1718069;81;21551;-52
2022/12/13 08:41:04;;;;;;;22.47;16.37;;;;;;;;;;1711779;81;21053;-54
2022/12/13 08:43:30;;;;;;;23.13;16.77;;;;;;;;;;1715892;82;21030;-53
2022/12/13 08:45:56;;;;;;;22.27;15.30;;;;;;;;;;1715307;81;21487;-53
2022/12/13 08:48:22;;;;;;;18.50;13.73;;;;;;;;;;1722651;81;21789;-55
2022/12/13 08:50:48;;;;;;;17.33;12.57;;;;;;;;;;1693025;84;21050;-55
2022/12/13 08:53:14;;;;;;;22.00;16.33;;;;;;;;;;1694094;83;22025;-53
2022/12/13 08:55:41;;;;;;;23.23;17.40;;;;;;;;;;1692229;82;21089;-53
2022/12/13 08:58:07;;;;;;;21.07;16.47;;;;;;;;;;1689711;82;21224;-53
2022/12/13 09:00:36;;;;;;;22.97;15.07;;;;;;;;;;1688032;82;22851;-53
2022/12/13 09:03:03;;;;;;;21.67;14.50;;;;;;;;;;1690571;84;21081;-55
2022/12/13 09:05:30;;;;;;;21.73;14.63;;;;;;;;;;1695248;82;21110;-55
2022/12/13 09:07:57;;;;;;;21.10;14.63;;;;;;;;;;1694350;84;21559;-54
2022/12/13 09:10:23;;;;;;;21.47;14.40;;;;;;;;;;1684139;83;21406;-55
2022/12/13 09:12:49;;;;;;;26.33;15.90;;;;;;;;;;1685439;84;21818;-55
2022/12/13 09:15:16;;;;;;;32.97;21.27;;;;;;;;;;1687284;84;21039;-55
2022/12/13 09:17:42;;;;;;;30.63;19.77;;;;;;;;;;1684060;83;21063;-55
2022/12/13 09:20:10;;;;;;;33.83;22.10;;;;;;;;;;1683215;82;21109;-55
2022/12/13 09:22:37;;;;;;;30.23;20.73;;;;;;;;;;1684965;82;21066;-55
2022/12/13 09:25:04;;;;;;;23.37;14.87;;;;;;;;;;1681237;82;22903;-54
2022/12/13 09:27:30;;;;;;;20.13;14.23;;;;;;;;;;1682293;82;21540;-54
2022/12/13 09:29:57;;;;;;;20.80;14.20;;;;;;;;;;1687668;83;21182;-54
2022/12/13 09:32:26;;;;;;;17.80;12.70;;;;;;;;;;1681524;84;21058;-55
2022/12/13 09:34:52;;;;;;;18.20;13.33;;;;;;;;;;1681711;84;21151;-55
2022/12/13 09:37:18;;;;;;;16.50;12.30;;;;;;;;;;1684489;84;21821;-55
2022/12/13 09:39:46;;;;;;;23.60;15.37;;;;;;;;;;1688242;83;21519;-55
2022/12/13 09:42:19;;;;;;;16.90;12.77;;;;;;;;;;1687112;84;21062;-55
2022/12/13 09:44:57;;;;;;;20.23;14.27;;;;;;;;;;1685094;84;21101;-55
2022/12/13 09:47:32;;;;;;;21.43;14.17;;;;;;;;;;1683727;84;21114;-55
2022/12/13 09:50:00;;;;;;;19.10;13.67;;;;;;;;;;1685666;83;21812;-55
2022/12/13 09:52:27;;;;;;;17.77;11.77;;;;;;;;;;1687079;84;21094;-55
2022/12/13 09:54:55;;;;;;;14.93;11.60;;;;;;;;;;1677725;84;21489;-54
2022/12/13 09:57:28;;;;;;;13.40;10.37;;;;;;;;;;1687531;83;21086;-54
2022/12/13 09:59:54;;;;;;;10.37;8.27;;;;;;;;;;1684772;83;21125;-54
2022/12/13 10:02:23;;;;;;;13.97;10.27;;;;;;;;;;1684323;83;21938;-54
2022/12/13 10:04:49;;;;;;;15.00;10.93;;;;;;;;;;1687158;84;21058;-55
2022/12/13 10:07:20;;;;;;;12.90;10.00;;;;;;;;;;1683851;82;21095;-55
2022/12/13 10:09:46;;;;;;;14.30;10.67;;;;;;;;;;1678319;82;21751;-53
2022/12/13 10:12:14;;;;;;;12.33;9.30;;;;;;;;;;1687638;82;21040;-54
2022/12/13 10:14:44;;;;;;;14.47;9.90;;;;;;;;;;1688417;82;21796;-54
2022/12/13 10:17:14;;;;;;;12.03;10.13;;;;;;;;;;1681614;83;21035;-54
2022/12/13 10:19:42;;;;;;;12.10;10.23;;;;;;;;;;1633460;84;20986;-54
2022/12/13 10:22:13;;;;;;;14.90;9.87;;;;;;;;;;1655212;84;21032;-54
2022/12/13 10:24:51;;;;;;;13.03;9.07;;;;;;;;;;1651527;84;21111;-54
2022/12/13 10:27:20;;;;;;;13.97;10.50;;;;;;;;;;1649747;86;21884;-54
2022/12/13 10:30:10;;;;;;;13.93;9.57;;;;;;;;;;1649972;86;21062;-54
2022/12/13 10:33:01;;;;;;;13.47;9.83;;;;;;;;;;1650541;86;21464;-54
2022/12/13 10:35:36;;;;;;;14.07;9.77;;;;;;;;;;1654479;84;21023;-54
2022/12/13 10:38:15;;;;;;;13.37;9.63;;;;;;;;;;1646662;84;21065;-53
2022/12/13 10:40:47;;;;;;;14.67;11.07;;;;;;;;;;1649202;84;21852;-54
2022/12/13 10:43:20;;;;;;;13.93;9.33;;;;;;;;;;1650349;86;21900;-54
2022/12/13 10:46:01;;;;;;;12.85;10.63;;;;;;;;;;1653892;86;20999;-54
2022/12/13 10:48:36;;;;;;;15.67;10.70;;;;;;;;;;1653922;85;20981;-53
2022/12/13 10:51:04;;;;;;;18.97;11.87;;;;;;;;;;1662236;84;21102;-53
2022/12/13 10:53:33;;;;;;;15.13;10.73;;;;;;;;;;1654091;86;21843;-54
2022/12/13 10:55:59;;;;;;;15.23;10.40;;;;;;;;;;1654428;86;21055;-54
2022/12/13 10:58:35;;;;;;;15.53;11.20;;;;;;;;;;1651103;85;21058;-54
2022/12/13 11:01:49;;;;;;;13.30;9.80;;;;;;;;;;1774290;78;27670;-53
2022/12/13 11:04:26;;;;;;;17.73;10.23;;;;;;;;;;1748679;80;21630;-53
2022/12/13 11:06:52;;;;;;;13.90;10.17;;;;;;;;;;1741265;80;21876;-54
2022/12/13 11:09:33;;;;;;;15.40;10.77;;;;;;;;;;1741820;80;21029;-53
2022/12/13 11:12:02;;;;;;;16.17;11.13;;;;;;;;;;1741235;80;21042;-54
2022/12/13 11:14:33;;;;;;;14.83;9.60;;;;;;;;;;1739344;80;21037;-54
2022/12/13 11:17:08;;;;;;;15.30;11.73;;;;;;;;;;1740788;80;21124;-54
2022/12/13 11:19:38;;;;;;;14.13;10.03;;;;;;;;;;1743491;80;22494;-55
2022/12/13 11:22:04;;;;;;;14.57;10.23;;;;;;;;;;1742225;80;21097;-54
2022/12/13 11:24:32;;;;;;;16.07;10.60;;;;;;;;;;1739259;80;21169;-54
2022/12/13 11:27:17;;;;;;;12.33;9.87;;;;;;;;;;1725045;82;21104;-54
2022/12/13 11:29:57;;;;;;;;;;;;;;;;;;1726205;82;21053;-55
2022/12/13 11:32:44;;;;;;;16.03;9.43;;;;;;;;;;1706149;82;21822;-55
2022/12/13 11:35:17;;;;;;;13.80;9.70;;;;;;;;;;1718633;82;21080;-55
2022/12/13 11:37:58;;;;;;;11.67;9.43;;;;;;;;;;1729660;82;21337;-55
2022/12/13 11:40:27;;;;;;;13.77;10.30;;;;;;;;;;1725412;80;22736;-54
2022/12/13 11:43:07;;;;;;;14.93;10.00;;;;;;;;;;1725526;82;21098;-54
2022/12/13 11:45:38;;;;;;;14.77;9.90;;;;;;;;;;1721767;82;21808;-54
2022/12/13 11:48:17;;;;;;;14.13;10.67;;;;;;;;;;1725538;82;21022;-54
2022/12/13 11:50:46;;;;;;;15.83;11.70;;;;;;;;;;1731751;80;21812;-54
2022/12/13 11:53:25;;;;;;;14.30;9.27;;;;;;;;;;1727934;82;21026;-54
2022/12/13 11:56:00;;;;;;;12.63;8.80;;;;;;;;;;1723653;80;21159;-55
2022/12/13 11:58:43;;;;;;;15.27;10.67;;;;;;;;;;1722160;82;23209;-54
2022/12/13 12:01:13;;;;;;;12.80;10.43;;;;;;;;;;1722256;81;21331;-54
2022/12/13 12:03:44;;;;;;;14.80;9.93;;;;;;;;;;1707818;82;21046;-54
2022/12/13 12:06:23;;;;;;;12.53;10.53;;;;;;;;;;1714388;82;21015;-53
2022/12/13 12:08:58;;;;;;;11.63;9.20;;;;;;;;;;1712640;81;21082;-54
2022/12/13 12:11:34;;;;;;;;;;;;;;;;;;1711520;82;22335;-54
2022/12/13 12:14:13;;;;;;;12.37;8.77;;;;;;;;;;1715319;81;21205;-53
2022/12/13 12:16:54;;;;;;;15.77;10.03;;;;;;;;;;1714791;81;21502;-54
2022/12/13 12:19:22;;;;;;;17.40;11.97;;;;;;;;;;1721559;81;21019;-55
2022/12/13 12:22:10;;;;;;;15.27;10.43;;;;;;;;;;1722894;81;21604;-54
2022/12/13 12:24:43;;;;;;;16.63;11.60;;;;;;;;;;1712213;81;21802;-54
2022/12/13 12:27:19;;;;;;;16.13;11.43;;;;;;;;;;1722405;81;20982;-54
2022/12/13 12:30:03;;;;;;;15.60;11.83;;;;;;;;;;1696741;81;21038;-54
2022/12/13 12:32:42;;;;;;;17.73;12.23;;;;;;;;;;1719602;81;20986;-54
2022/12/13 12:35:18;;;;;;;15.73;10.73;;;;;;;;;;1716111;81;21051;-54
2022/12/13 12:38:02;;;;;;;12.27;8.50;;;;;;;;;;1715916;81;22451;-55
2022/12/13 12:40:55;;;;;;;11.97;8.10;;;;;;;;;;1642536;81;21022;-53
2022/12/13 12:43:41;;;;;;;13.17;7.63;;;;;;;;;;1714405;81;20998;-55
2022/12/13 12:46:45;;;;;;;9.50;7.87;;;;;;;;;;1716111;81;20994;-55
2022/12/13 12:49:24;;;;;;;14.10;9.53;;;;;;;;;;1715855;82;20991;-55
2022/12/13 12:51:57;;;;;;;12.80;9.10;;;;;;;;;;1707148;82;21810;-55
2022/12/13 12:54:44;;;;;;;10.50;7.73;;;;;;;;;;1713602;82;21054;-55
2022/12/13 12:57:38;;;;;;;9.37;7.20;;;;;;;;;;1709558;82;21101;-54
2022/12/13 13:00:14;;;;;;;7.40;5.40;;;;;;;;;;1711821;82;21096;-54
2022/12/13 13:03:10;;;;;;;7.47;5.07;;;;;;;;;;1711604;82;21526;-54
2022/12/13 13:05:48;;;;;;;9.07;6.37;;;;;;;;;;1712170;82;21823;-54
2022/12/13 13:08:18;;;;;;;8.50;5.87;;;;;;;;;;1719229;82;21022;-54
2022/12/13 13:10:44;;;;;;;6.47;5.10;;;;;;;;;;1705107;82;21057;-55
2022/12/13 13:13:33;;;;;;;6.87;6.10;;;;;;;;;;1708300;82;21957;-55
2022/12/13 13:16:00;;;;;;;9.40;6.90;;;;;;;;;;1718443;82;21011;-55
2022/12/13 13:18:44;;;;;;;6.07;5.40;;;;;;;;;;1657968;85;21845;-54
2022/12/13 13:21:27;;;;;;;7.58;6.25;;;;;;;;;;1707514;82;21069;-54
2022/12/13 13:24:14;;;;;;;8.33;5.93;;;;;;;;;;1712258;82;21065;-54
2022/12/13 13:26:50;;;;;;;9.10;6.43;;;;;;;;;;1710552;82;21102;-55
2022/12/13 13:29:26;;;;;;;9.90;6.73;;;;;;;;;;1709711;82;21379;-55
2022/12/13 13:32:15;;;;;;;8.40;5.27;;;;;;;;;;1709307;82;21354;-55
2022/12/13 13:34:47;;;;;;;7.93;6.67;;;;;;;;;;1711595;82;21356;-55
2022/12/13 13:37:23;;;;;;;11.00;7.27;;;;;;;;;;1712576;82;21508;-55
2022/12/13 13:40:02;;;;;;;8.80;6.60;;;;;;;;;;1709536;82;21545;-54
2022/12/13 13:42:29;;;;;;;9.93;6.73;;;;;;;;;;1709844;82;22179;-55
2022/12/13 13:45:14;;;;;;;8.87;7.40;;;;;;;;;;1712021;82;21935;-54
2022/12/13 13:47:40;;;;;;;11.03;7.00;;;;;;;;;;1711259;82;21500;-54
2022/12/13 13:50:11;;;;;;;9.67;7.60;;;;;;;;;;1707614;82;21047;-54
2022/12/13 13:52:58;;;;;;;9.27;6.17;;;;;;;;;;1709294;82;21038;-54
2022/12/13 13:55:34;;;;;;;10.93;7.30;;;;;;;;;;1705398;81;21625;-55
2022/12/13 13:58:33;;;;;;;9.63;7.33;;;;;;;;;;1713162;82;21421;-54
2022/12/13 14:01:11;;;;;;;8.90;7.00;;;;;;;;;;1718897;82;21070;-54
2022/12/13 14:04:16;;;;;;;10.57;8.30;;;;;;;;;;1707924;81;21100;-55
2022/12/13 14:06:55;;;;;;;11.33;8.27;;;;;;;;;;1711916;81;21102;-55
2022/12/13 14:09:32;;;;;;;11.97;8.73;;;;;;;;;;1634259;81;21515;-54
2022/12/13 14:12:11;;;;;;;12.50;7.67;;;;;;;;;;1708083;81;21823;-53
2022/12/13 14:15:08;;;;;;;13.70;9.23;;;;;;;;;;1720679;81;21633;-53
2022/12/13 14:17:50;;;;;;;13.97;9.27;;;;;;;;;;1714366;81;21073;-54
2022/12/13 14:20:38;;;;;;;12.70;9.13;;;;;;;;;;1708282;81;21121;-54
2022/12/13 14:23:26;;;;;;;15.00;11.53;;;;;;;;;;1711715;81;21031;-54
2022/12/13 14:26:19;;;;;;;11.83;9.10;;;;;;;;;;1712124;81;23682;-55
2022/12/13 14:28:48;;;;;;;15.17;10.67;;;;;;;;;;1715584;81;21058;-54
2022/12/13 14:31:23;;;;;;;14.23;10.43;;;;;;;;;;1703157;81;21109;-54
2022/12/13 14:33:50;;;;;;;12.70;9.78;;;;;;;;;;1709102;81;21081;-53
2022/12/13 14:36:17;;;;;;;15.77;10.83;;;;;;;;;;1705941;81;21050;-54
2022/12/13 14:38:44;;;;;;;14.00;10.40;;;;;;;;;;1712720;81;22459;-54
2022/12/13 14:41:18;;;;;;;14.63;10.30;;;;;;;;;;1711877;81;21486;-54
2022/12/13 14:43:44;;;;;;;;;;;;;;;;;;1715031;81;21117;-53
2022/12/13 14:46:12;;;;;;;13.40;9.87;;;;;;;;;;1708991;81;20659;-53
2022/12/13 14:48:47;;;;;;;18.43;12.63;;;;;;;;;;1711072;81;21378;-54
2022/12/13 14:51:24;;;;;;;16.40;11.10;;;;;;;;;;1712359;81;21889;-54
2022/12/13 14:53:50;;;;;;;20.70;12.23;;;;;;;;;;1714221;81;21574;-53